• Join FlightAware (Why Join?)
  • Login
  • US Flag 
05:18AM EDT


 

Airport Tracker/Info


-or-


 

Live Flight TrackerFlight Track Log ✈ TAM3702 ✈ 19-Jul-2013 ✈ SBSP / CGH - SBBR / BSB

Flight Track Log - Related Links

Times and Time Zones

All times are in EDT time to prevent confusion due to time zone crossing. See the TAM3702 flight status page for this flight to view local times or setup timezone preferences in your user account.

Time Position Orientation Groundspeed Altitude Reporting Facility
EDT Latitude Longitude Course Direction KTS MPH feet Rate Location/Type
05:53AM -23.6440 -46.6440 142° Southeast 154 177 3,300  Level FlightAware
05:53AM -23.6490 -46.6350 121° Southeast 171 197 3,500 1,560 Climbing FlightAware
05:54AM -23.6260 -46.6050 50° Northeast 208 239 4,700 1,560 Climbing FlightAware
05:54AM -23.6100 -46.5800 55° Northeast 248 285 5,300 1,500 Climbing FlightAware
05:54AM -23.6070 -46.5650 78° East 262 302 5,700 1,980 Climbing FlightAware
05:55AM -23.5990 -46.5270 77° East 292 336 6,600 1,920 Climbing FlightAware
05:55AM -23.5910 -46.4930 76° East 290 334 7,400 2,400 Climbing FlightAware
05:55AM -23.5820 -46.4520 77° East 293 337 8,700 2,520 Climbing FlightAware
05:56AM -23.5730 -46.4120 76° East 301 346 9,800 1,500 Climbing FlightAware
05:57AM -23.5600 -46.3510 77° East 315 362 10,400 1,020 Climbing FlightAware
05:57AM -23.5450 -46.3080 69° East 344 396 11,000 1,740 Climbing FlightAware
05:57AM -23.5250 -46.2910 38° Northeast 346 398 11,700 2,760 Climbing FlightAware
05:58AM -23.5070 -46.2850 17° North 346 398 12,300 2,880 Climbing FlightAware
05:58AM -23.4630 -46.2950 348° North 342 394 13,700 2,640 Climbing FlightAware
05:59AM -23.4010 -46.3320 331° Northwest 354 407 15,500 2,400 Climbing FlightAware
05:59AM -23.3400 -46.3660 333° Northwest 367 422 17,100 2,400 Climbing FlightAware
06:00AM -23.2860 -46.3940 335° Northwest 370 426 18,600 2,400 Climbing FlightAware
06:01AM -23.2220 -46.4280 334° Northwest 377 434 20,200 2,280 Climbing FlightAware
06:01AM -23.1530 -46.4640 334° Northwest 385 443 21,800 1,560 Climbing FlightAware
06:02AM -23.0950 -46.4940 335° Northwest 403 464 22,600 1,620 Climbing FlightAware
06:03AM -22.9820 -46.5510 335° Northwest 419 482 24,600 2,040 Climbing FlightAware
06:04AM -22.8990 -46.5770 344° North 432 497 25,900 1,620 Climbing FlightAware
06:05AM -22.8090 -46.5930 351° North 445 512 27,000 1,440 Climbing FlightAware
06:05AM -22.7170 -46.6090 351° North 454 522 28,100 1,560 Climbing FlightAware
06:06AM -22.6360 -46.6220 352° North 454 522 29,200 1,560 Climbing FlightAware
06:07AM -22.5640 -46.6340 351° North 449 517 30,300 1,680 Climbing FlightAware
06:07AM -22.4770 -46.6480 352° North 450 518 31,400 1,560 Climbing FlightAware
06:08AM -22.3850 -46.6630 351° North 451 519 32,400 1,320 Climbing FlightAware
06:09AM -22.2990 -46.6760 352° North 452 520 33,300 1,260 Climbing FlightAware
06:09AM -22.2250 -46.6880 351° North 453 521 34,000 1,260 Climbing FlightAware
06:10AM -22.1370 -46.7010 352° North 451 519 35,000 720 Climbing FlightAware
06:11AM -22.0540 -46.7140 352° North 465 535 35,000  Level FlightAware
06:11AM -21.9760 -46.7260 352° North 464 534 35,000  Level FlightAware
06:12AM -21.8780 -46.7500 347° North 446 513 35,000  Level FlightAware
06:13AM -21.7980 -46.7890 336° Northwest 443 510 35,000  Level FlightAware
06:13AM -21.7460 -46.8130 337° Northwest 440 506 35,000  Level FlightAware
06:14AM -21.6820 -46.8430 336° Northwest 437 503 35,000  Level FlightAware
06:15AM -21.6100 -46.8770 336° Northwest 436 502 35,000  Level FlightAware
06:15AM -21.5230 -46.9180 336° Northwest 437 503 35,000  Level FlightAware
06:16AM -21.4290 -46.9630 336° Northwest 438 504 35,000  Level FlightAware
06:17AM -21.3520 -46.9990 336° Northwest 439 505 35,000  Level FlightAware
06:17AM -21.2760 -47.0350 336° Northwest 439 505 35,000  Level FlightAware
06:18AM -21.1940 -47.0730 337° Northwest 438 504 35,000  Level FlightAware
06:19AM -21.1200 -47.1080 336° Northwest 439 505 35,000  Level FlightAware
06:19AM -21.0540 -47.1400 336° Northwest 437 503 35,000  Level FlightAware
06:21AM -20.9160 -47.2040 337° Northwest 437 503 35,000  Level FlightAware
06:21AM -20.8380 -47.2400 337° Northwest 437 503 35,000  Level FlightAware
06:22AM -20.7410 -47.2850 337° Northwest 436 502 35,000  Level FlightAware
06:23AM -20.6630 -47.3220 336° Northwest 433 498 35,000  Level FlightAware
06:24AM -20.6020 -47.3500 337° Northwest 431 496 35,000  Level FlightAware
06:24AM -20.4910 -47.4020 336° Northwest 427 491 35,000  Level FlightAware
06:25AM -20.4160 -47.4370 336° Northwest 424 488 35,000  Level FlightAware
06:26AM -20.3360 -47.4740 337° Northwest 424 488 35,000  Level FlightAware
06:27AM -20.2710 -47.5040 337° Northwest 425 489 35,000  Level FlightAware
06:27AM -20.1840 -47.5440 337° Northwest 426 490 35,000  Level FlightAware
06:28AM -20.1070 -47.5800 336° Northwest 428 493 35,000  Level FlightAware
06:29AM -20.0310 -47.6150 337° Northwest 429 494 35,000  Level FlightAware
06:29AM -19.9580 -47.6490 336° Northwest 429 494 35,000  Level FlightAware
06:30AM -19.8770 -47.6860 337° Northwest 430 495 35,000  Level FlightAware
06:31AM -19.8050 -47.7200 336° Northwest 431 496 35,000  Level FlightAware
06:32AM -19.7230 -47.7570 337° Northwest 433 498 35,000  Level FlightAware
06:32AM -19.6490 -47.7910 337° Northwest 435 501 35,000  Level FlightAware
06:33AM -19.5670 -47.8280 337° Northwest 435 501 35,000  Level FlightAware
06:34AM -19.4890 -47.8650 336° Northwest 436 502 35,000  Level FlightAware
06:34AM -19.4200 -47.8960 337° Northwest 437 503 35,000  Level FlightAware
06:35AM -19.3550 -47.9260 336° Northwest 428 493 35,000  Level FlightAware
06:35AM -19.2880 -47.9560 337° Northwest 422 486 35,000  Level FlightAware
06:36AM -19.2120 -47.9910 336° Northwest 424 488 35,000  Level FlightAware
06:37AM -19.1650 -48.0130 336° Northwest 426 490 35,000  Level FlightAware
06:38AM -19.0780 -48.0530 337° Northwest 428 493 35,000  Level FlightAware
06:38AM -18.9890 -48.0930 337° Northwest 428 493 35,000  Level FlightAware
06:39AM -18.9060 -48.1310 337° Northwest 429 494 35,000  Level FlightAware
06:40AM -18.8250 -48.1680 337° Northwest 428 493 35,000  Level FlightAware
06:40AM -18.7670 -48.1940 337° Northwest 428 493 35,000  Level FlightAware
06:41AM -18.6910 -48.2280 337° Northwest 429 494 35,000  Level FlightAware
06:42AM -18.6350 -48.2530 337° Northwest 430 495 35,000  Level FlightAware
06:42AM -18.5450 -48.2940 337° Northwest 431 496 35,000  Level FlightAware
06:43AM -18.4680 -48.3290 337° Northwest 433 498 35,000  Level FlightAware
06:44AM -18.3890 -48.3650 337° Northwest 434 499 35,000  Level FlightAware
06:44AM -18.3060 -48.4030 337° Northwest 436 502 35,000  Level FlightAware
06:45AM -18.2400 -48.4320 337° Northwest 436 502 35,000  Level FlightAware
06:46AM -18.1730 -48.4630 336° Northwest 437 503 35,000  Level FlightAware
06:46AM -18.0730 -48.5070 337° Northwest 435 501 35,000  Level FlightAware
06:47AM -18.0130 -48.5340 337° Northwest 433 498 35,000  Level FlightAware
06:48AM -17.9400 -48.5510 348° North 465 535 35,000  Level FlightAware
06:48AM -17.8970 -48.5470 North 479 551 35,000  Level FlightAware
06:49AM -17.7950 -48.5340 North 480 552 35,000  Level FlightAware
06:49AM -17.7420 -48.5270 North 482 555 35,000 -840 Level FlightAware
06:50AM -17.6270 -48.5130 North 490 564 34,000 -2,100 Descending FlightAware
06:51AM -17.5340 -48.5010 North 483 556 32,000 -2,040 Descending FlightAware
06:52AM -17.4240 -48.4870 North 475 547 30,800 -840 Descending FlightAware
06:52AM -17.3570 -48.4780 North 475 547 30,800  Level FlightAware
06:53AM -17.2680 -48.4670 North 475 547 30,800  Level FlightAware
06:54AM -17.1920 -48.4570 North 475 547 30,800  Level FlightAware
06:54AM -17.1250 -48.4490 North 475 547 30,800  Level FlightAware
06:55AM -17.0590 -48.4400 North 475 547 30,800  Level FlightAware
06:56AM -16.9700 -48.4290 North 475 547 30,800  Level FlightAware
06:56AM -16.9010 -48.4200 North 475 547 30,800 -14,280 Level FlightAware
06:56AM -16.8820 -48.4280 338° Northwest 356 410 19,400 -13,440 Descending FlightAware
06:57AM -16.8080 -48.4360 354° North 351 404 18,300 -1,380 Descending FlightAware
06:58AM -16.7450 -48.4420 355° North 334 384 17,500 -1,440 Descending FlightAware
06:59AM -16.6660 -48.4530 352° North 324 373 16,100 -1,500 Descending FlightAware
06:59AM -16.6060 -48.4660 348° North 317 365 15,200 -1,440 Descending FlightAware
07:00AM -16.5390 -48.4790 349° North 316 364 14,100 -1,380 Descending FlightAware
07:01AM -16.4820 -48.4910 349° North 311 358 13,300 -1,320 Descending FlightAware
07:02AM -16.4180 -48.5050 348° North 309 356 12,300 -1,200 Descending FlightAware
07:02AM -16.3830 -48.5120 349° North 307 353 11,700 -1,020 Descending FlightAware
07:03AM -16.3260 -48.5230 350° North 303 349 10,900 -1,140 Descending FlightAware
07:04AM -16.2570 -48.5370 349° North 285 328 10,100 -540 Descending FlightAware
07:05AM -16.1750 -48.5030 22° Northeast 276 318 9,900 -180 Descending FlightAware
07:05AM -16.1510 -48.4940 20° North 276 318 9,900 -1,260 Level FlightAware
07:06AM -16.1570 -48.4110 94° East 276 318 8,900 -1,200 Descending FlightAware
07:07AM -16.1300 -48.3590 62° Northeast 248 285 8,400 -540 Descending FlightAware
07:07AM -16.1260 -48.3280 82° East 236 272 8,200 -360 Descending FlightAware
07:08AM -16.1230 -48.2950 85° East 232 267 8,000 -300 Descending FlightAware
07:08AM -16.1210 -48.2720 85° East 232 267 8,000 -780 Level FlightAware
07:08AM -16.1180 -48.2480 83° East 232 267 7,600 -1,140 Descending FlightAware
07:09AM -16.1150 -48.2110 85° East 229 264 7,000 -900 Descending FlightAware
07:09AM -16.1070 -48.1860 72° East 227 261 6,800 -300 Descending FlightAware
07:09AM -16.0880 -48.1770 24° Northeast 227 261 6,800  Level FlightAware
07:10AM -16.0680 -48.1850 339° North 225 259 6,800  Level FlightAware
07:10AM -16.0490 -48.2010 321° Northwest 223 257 6,800  Level FlightAware
07:10AM -16.0410 -48.2070 324° Northwest 223 257 6,800 -600 Level FlightAware
07:11AM -16.0100 -48.2000 12° North 222 255 6,400 -720 Descending FlightAware
07:11AM -15.9870 -48.1860 30° Northeast 222 255 6,100 -300 Descending FlightAware
07:12AM -15.9540 -48.1650 31° Northeast 215 247 6,100  Level FlightAware
07:12AM -15.9300 -48.1500 31° Northeast 193 222 6,100  Level FlightAware
07:13AM -15.9130 -48.1390 32° Northeast 188 216 6,100  Level FlightAware
07:13AM -15.9040 -48.1340 28° Northeast 187 215 6,100 -120 Level FlightAware
07:14AM -15.8910 -48.0960 70° East 190 219 6,000 -360 Descending FlightAware
07:14AM -15.8890 -48.0760 84° East 184 212 5,700 -1,080 Descending FlightAware
07:15AM -15.8870 -48.0310 87° East 160 184 4,900 -960 Descending FlightAware
07:16AM -15.8850 -48.0050 85° East 140 161 4,500 -720 Descending FlightAware
07:16AM -15.8830 -47.9820 85° East 140 161 4,100 -780 Descending FlightAware
07:17AM -15.8820 -47.9640 87° East 139 160 3,700 -600 Descending FlightAware
07:17AM -15.8810 -47.9490 86° East 144 166 3,500 -360 Descending FlightAware
07:18AM -15.8800 -47.9250 88° East 144 166 3,300 -300 Descending FlightAware
07:19AM -15.8750 -47.9160 60° Northeast 22 25 -3,180 Descending FlightAware
07:21AM -15.8680 -47.9160 360° North 32 37  Level FlightAware
07:21AM -15.8670 -47.9170 316° Northwest 25 29  Level FlightAware
07:21AM -15.8670 -47.9180 270° West 28 32  Level FlightAware
07:22AM -15.8670 -47.9190 270° West 22 25  Level FlightAware
07:23AM -15.8660 -47.9210 297° West 15 17  Level FlightAware
07:23AM -15.8660 -47.9220 270° West 21 24  Level FlightAware
07:24AM -15.8660 -47.9230 270° West 32 37  Level FlightAware
07:24AM -15.8660 -47.9240 270° West 25 29  Level FlightAware
07:25AM -15.8680 -47.9250 206° Southwest 26 30  Level FlightAware
07:25AM -15.8680 -47.9260 270° West 25 29  Level FlightAware
07:26AM -15.8680 -47.9270 270° West 30 35  Level FlightAware
07:27AM -15.8690 -47.9280 224° Southwest  Level FlightAware
07:28AM -15.8680 -47.9280 360° North  Level FlightAware
07:29AM -15.8690 -47.9280 180° South 3 3  Level FlightAware
07:32AM -15.8626 -47.9127 66° East  Level Estimated
07:33AM -15.8626 -47.9127 128° Southeast  Level Estimated